createdAt,value
2022-11-04T00:01:57.247Z,8.45
2022-11-04T00:05:18.267Z,8.44
2022-11-04T00:08:57.892Z,8.45
2022-11-04T00:12:52.662Z,8.47
2022-11-04T00:16:33.511Z,8.47
2022-11-04T00:20:46.399Z,8.43
2022-11-04T00:24:29.709Z,8.38
2022-11-04T00:28:10.330Z,8.30
2022-11-04T00:31:50.848Z,8.24
2022-11-04T00:35:13.832Z,8.21
2022-11-04T00:38:50.331Z,8.18
2022-11-04T00:42:46.798Z,8.18
2022-11-04T00:46:07.903Z,8.21
2022-11-04T00:49:45.415Z,8.25
2022-11-04T00:53:23.371Z,8.27
2022-11-04T00:57:19.657Z,8.29
2022-11-04T01:00:40.679Z,8.27
2022-11-04T01:04:37.247Z,8.24
2022-11-04T01:07:58.316Z,8.18
2022-11-04T01:11:35.808Z,8.12
2022-11-04T01:15:13.492Z,8.05
2022-11-04T01:18:51.473Z,7.99
2022-11-04T01:22:29.110Z,7.97
2022-11-04T01:26:15.816Z,7.96
2022-11-04T01:29:44.461Z,7.99
2022-11-04T01:33:21.909Z,8.00
2022-11-04T01:36:59.566Z,8.01
2022-11-04T01:40:39.089Z,7.98
2022-11-04T01:44:47.851Z,7.94
2022-11-04T01:48:22.301Z,7.90
2022-11-04T01:52:10.609Z,7.86
2022-11-04T01:55:39.516Z,7.83
2022-11-04T01:59:34.610Z,7.81
2022-11-04T02:06:55.095Z,7.87
2022-11-04T02:10:17.371Z,7.92
2022-11-04T02:13:53.809Z,7.91
2022-11-04T02:18:07.038Z,7.88
2022-11-04T02:21:40.866Z,7.83
2022-11-04T02:26:12.804Z,7.79
2022-11-04T02:29:55.297Z,7.77
2022-11-04T02:34:09.746Z,7.74
2022-11-04T02:38:08.680Z,7.76
2022-11-04T02:42:01.308Z,7.79
2022-11-04T02:45:40.618Z,7.81
2022-11-04T02:49:15.618Z,7.80
2022-11-04T02:53:10.016Z,7.80
2022-11-04T02:56:52.410Z,7.79
2022-11-04T03:00:33.543Z,7.76
2022-11-04T03:04:02.993Z,7.73
2022-11-04T03:07:37.786Z,7.72
2022-11-04T03:11:19.743Z,7.76
2022-11-04T03:14:53.649Z,7.78
2022-11-04T03:18:36.990Z,7.81
2022-11-04T03:22:23.418Z,7.82
2022-11-04T03:25:47.047Z,7.82
2022-11-04T03:29:28.834Z,7.83
2022-11-04T03:33:36.294Z,7.83
2022-11-04T03:37:16.122Z,7.84
2022-11-04T03:40:37.027Z,7.86
2022-11-04T03:44:14.834Z,7.88
2022-11-04T03:47:53.259Z,7.90
2022-11-04T03:51:30.061Z,7.89
2022-11-04T03:55:09.925Z,7.86
2022-11-04T03:59:04.681Z,7.83
2022-11-04T04:03:05.784Z,7.77
2022-11-04T04:06:36.769Z,7.72
2022-11-04T04:10:41.189Z,7.71
2022-11-04T04:14:39.804Z,7.72
2022-11-04T04:18:07.669Z,7.73
2022-11-04T04:22:00.902Z,7.74
2022-11-04T04:25:45.657Z,7.71
2022-11-04T04:29:08.576Z,7.67
2022-11-04T04:32:49.265Z,7.62
2022-11-04T04:36:23.190Z,7.54
2022-11-04T04:40:24.694Z,7.46
2022-11-04T04:44:05.451Z,7.41
2022-11-04T04:47:46.380Z,7.40
2022-11-04T04:51:08.038Z,7.40
2022-11-04T04:54:45.707Z,7.38
2022-11-04T04:58:41.734Z,7.35
2022-11-04T05:02:02.310Z,7.32
2022-11-04T05:05:59.376Z,7.28
2022-11-04T05:09:38.738Z,7.24
2022-11-04T05:13:19.876Z,7.21
2022-11-04T05:17:03.199Z,7.21
2022-11-04T05:20:42.666Z,7.23
2022-11-04T05:24:03.010Z,7.27
2022-11-04T05:27:40.885Z,7.26
2022-11-04T05:31:18.546Z,7.26
2022-11-04T05:34:56.401Z,7.23
2022-11-04T05:38:33.844Z,7.16
2022-11-04T05:42:11.573Z,7.10
2022-11-04T05:45:49.199Z,7.06
2022-11-04T05:49:45.767Z,7.04
2022-11-04T05:53:06.545Z,7.03
2022-11-04T05:57:03.030Z,7.05
2022-11-04T06:00:42.416Z,7.08
2022-11-04T06:04:05.633Z,7.12
2022-11-04T06:07:40.584Z,7.16
2022-11-04T06:11:19.744Z,7.20
2022-11-04T06:15:14.750Z,7.23
2022-11-04T06:18:54.179Z,7.28
2022-11-04T06:22:17.754Z,7.33
2022-11-04T06:26:12.832Z,7.43
2022-11-04T06:29:52.971Z,7.53
2022-11-04T06:33:36.687Z,7.61
2022-11-04T06:36:58.399Z,7.67
2022-11-04T06:40:55.176Z,7.69
2022-11-04T06:44:34.849Z,7.69
2022-11-04T06:47:56.290Z,7.69
2022-11-04T06:51:34.159Z,7.72
2022-11-04T06:55:11.593Z,7.74
2022-11-04T06:58:54.243Z,7.79
2022-11-04T07:02:26.908Z,7.84
2022-11-04T07:06:09.102Z,7.91
2022-11-04T07:09:41.981Z,7.97
2022-11-04T07:13:38.299Z,8.04
2022-11-04T07:16:58.918Z,8.11
2022-11-04T07:20:36.969Z,8.17
2022-11-04T07:24:14.411Z,8.24
2022-11-04T07:28:11.336Z,8.35
2022-11-04T07:31:32.586Z,8.44
2022-11-04T07:35:10.104Z,8.52
2022-11-04T07:38:48.036Z,8.57
2022-11-04T07:42:25.336Z,8.60
2022-11-04T07:46:06.563Z,8.61
2022-11-04T07:49:40.891Z,8.59
2022-11-04T07:53:18.563Z,8.60
2022-11-04T07:56:56.064Z,8.63
2022-11-04T08:01:05.057Z,8.67
2022-11-04T08:04:26.111Z,8.75
2022-11-04T08:08:03.833Z,8.86
2022-11-04T08:11:41.259Z,8.98
2022-11-04T08:15:19.191Z,9.09
2022-11-04T08:19:01.785Z,9.16
2022-11-04T08:22:34.643Z,9.20
2022-11-04T08:26:14.910Z,9.24
2022-11-04T08:29:49.642Z,9.28
2022-11-04T08:33:28.488Z,9.32
2022-11-04T08:37:24.182Z,9.36
2022-11-04T08:41:06.318Z,9.41
2022-11-04T08:44:27.042Z,9.48
2022-11-04T08:48:23.446Z,9.56
2022-11-04T08:52:03.112Z,9.68
2022-11-04T08:55:42.761Z,9.77
2022-11-04T08:59:22.277Z,9.86
2022-11-04T09:03:01.878Z,9.92
2022-11-04T09:06:34.167Z,9.96
2022-11-04T09:10:02.109Z,9.98
2022-11-04T09:13:40.142Z,10.02
2022-11-04T09:17:15.677Z,10.04
2022-11-04T09:20:54.297Z,10.06
2022-11-04T09:24:32.017Z,10.12
2022-11-04T09:28:09.281Z,10.20
2022-11-04T09:32:05.742Z,10.31
2022-11-04T09:35:55.895Z,10.40
2022-11-04T09:39:35.179Z,10.47
2022-11-04T09:43:14.801Z,10.52
2022-11-04T09:47:00.289Z,10.59
2022-11-04T09:50:57.078Z,10.63
2022-11-04T09:54:48.390Z,10.66
2022-11-04T09:58:13.573Z,10.72
2022-11-04T10:02:08.393Z,10.78
2022-11-04T10:05:53.492Z,10.86
2022-11-04T10:09:45.784Z,10.91
2022-11-04T10:13:29.771Z,10.93
2022-11-04T10:17:25.090Z,10.95
2022-11-04T10:20:57.746Z,10.96
2022-11-04T10:24:58.170Z,10.98
2022-11-04T10:28:22.187Z,10.98
2022-11-04T10:32:31.777Z,10.99
2022-11-04T10:36:12.576Z,11.02
2022-11-04T10:39:37.314Z,11.08
2022-11-04T10:43:36.956Z,11.20
2022-11-04T10:47:16.640Z,11.28
2022-11-04T10:50:59.004Z,11.33
2022-11-04T10:54:44.892Z,11.38
2022-11-04T10:58:28.556Z,11.42
2022-11-04T11:01:53.194Z,11.43
2022-11-04T11:05:46.356Z,11.43
2022-11-04T11:09:19.506Z,11.43
2022-11-04T11:13:08.168Z,11.46
2022-11-04T11:17:14.584Z,11.50
2022-11-04T11:21:13.646Z,11.60
2022-11-04T11:25:20.911Z,11.73
2022-11-04T11:29:39.576Z,11.94
2022-11-04T11:33:46.267Z,12.16
2022-11-04T11:37:33.231Z,12.29
2022-11-04T11:41:24.968Z,12.35
2022-11-04T11:45:16.679Z,12.37
2022-11-04T11:49:23.788Z,12.39
2022-11-04T11:53:35.017Z,12.42
2022-11-04T12:02:42.336Z,12.52
2022-11-04T12:10:50.338Z,12.64
2022-11-04T12:14:22.706Z,12.68
2022-11-04T12:17:59.878Z,12.70
2022-11-04T12:22:07.393Z,12.72
2022-11-04T12:26:03.551Z,12.76
2022-11-04T12:30:07.477Z,12.78
2022-11-04T12:34:30.107Z,12.84
2022-11-04T12:38:09.535Z,12.88
2022-11-04T12:42:19.695Z,12.93
2022-11-04T12:46:10.704Z,12.98
2022-11-04T12:50:03.070Z,13.05
2022-11-04T12:53:45.572Z,13.11
2022-11-04T12:57:23.796Z,13.13
2022-11-04T13:00:51.628Z,13.14
2022-11-04T13:04:41.765Z,13.12
2022-11-04T13:08:03.190Z,13.10
2022-11-04T13:12:10.792Z,13.06
2022-11-04T13:15:35.919Z,13.02
2022-11-04T13:19:42.366Z,13.00
2022-11-04T13:23:08.978Z,12.96
2022-11-04T13:26:40.736Z,12.91
2022-11-04T13:30:47.934Z,12.86
2022-11-04T13:34:42.011Z,12.84
2022-11-04T13:38:17.111Z,12.85
2022-11-04T13:41:50.275Z,12.88
2022-11-04T13:45:20.406Z,12.88
2022-11-04T13:49:05.966Z,12.89
2022-11-04T13:52:53.201Z,12.87
2022-11-04T13:56:37.414Z,12.83
2022-11-04T14:00:29.868Z,12.79
2022-11-04T14:04:12.700Z,12.75
2022-11-04T14:07:58.714Z,12.73
2022-11-04T14:11:19.160Z,12.72
2022-11-04T14:15:04.422Z,12.71
2022-11-04T14:18:53.892Z,12.70
2022-11-04T14:22:17.201Z,12.68
2022-11-04T14:26:13.955Z,12.64
2022-11-04T14:29:54.107Z,12.59
2022-11-04T14:33:34.606Z,12.51
2022-11-04T14:37:14.718Z,12.43
2022-11-04T14:41:13.057Z,12.34
2022-11-04T14:44:49.328Z,12.25
2022-11-04T14:48:20.343Z,12.19
2022-11-04T14:51:49.443Z,12.17
2022-11-04T14:55:30.020Z,12.17
2022-11-04T14:59:20.083Z,12.17
2022-11-04T15:03:41.057Z,12.17
2022-11-04T15:07:02.389Z,12.11
2022-11-04T15:10:32.919Z,12.03
2022-11-04T15:14:22.131Z,11.98
2022-11-04T15:17:48.323Z,11.93
2022-11-04T15:21:26.891Z,11.85
2022-11-04T15:25:22.571Z,11.81
2022-11-04T15:29:10.679Z,11.80
2022-11-04T15:33:02.019Z,11.84
2022-11-04T15:36:29.564Z,11.85
2022-11-04T15:40:00.639Z,11.85
2022-11-04T15:43:39.172Z,11.83
2022-11-04T15:47:18.516Z,11.81
2022-11-04T15:51:01.358Z,11.79
2022-11-04T15:54:55.012Z,11.77
2022-11-04T15:58:16.511Z,11.71
2022-11-04T16:01:53.799Z,11.66
2022-11-04T16:06:07.097Z,11.67
2022-11-04T16:09:28.494Z,11.65
2022-11-04T16:13:25.137Z,11.63
2022-11-04T16:16:49.924Z,11.60
2022-11-04T16:20:23.953Z,11.53
2022-11-04T16:24:17.101Z,11.47
2022-11-04T16:27:38.620Z,11.42
2022-11-04T16:31:36.327Z,11.33
2022-11-04T16:35:27.033Z,11.27
2022-11-04T16:38:47.394Z,11.26
2022-11-04T16:42:25.070Z,11.26
2022-11-04T16:46:02.778Z,11.28
2022-11-04T16:49:40.331Z,11.29
2022-11-04T16:53:36.979Z,11.26
2022-11-04T16:57:00.228Z,11.23
2022-11-04T17:00:35.499Z,11.17
2022-11-04T17:04:31.852Z,11.12
2022-11-04T17:07:57.496Z,11.07
2022-11-04T17:11:30.517Z,11.05
2022-11-04T17:15:08.938Z,11.04
2022-11-04T17:18:45.835Z,11.06
2022-11-04T17:22:43.433Z,11.09
2022-11-04T17:26:22.716Z,11.16
2022-11-04T17:30:01.938Z,11.17
2022-11-04T17:33:22.495Z,11.14
2022-11-04T17:37:00.110Z,11.10
2022-11-04T17:41:15.252Z,11.06
2022-11-04T17:44:54.692Z,11.00
2022-11-04T17:48:16.123Z,10.95
2022-11-04T17:52:12.169Z,10.93
2022-11-04T17:55:51.567Z,10.92
2022-11-04T17:59:14.169Z,10.91
2022-11-04T18:02:50.261Z,10.90
2022-11-04T18:06:31.828Z,10.91
2022-11-04T18:10:23.978Z,10.92
2022-11-04T18:14:05.059Z,10.90
2022-11-04T18:17:25.986Z,10.86
2022-11-04T18:21:22.365Z,10.86
2022-11-04T18:24:43.139Z,10.86
2022-11-04T18:28:20.519Z,10.86
2022-11-04T18:32:16.842Z,10.86
2022-11-04T18:35:56.037Z,10.84
2022-11-04T18:39:37.394Z,10.83
2022-11-04T18:43:16.952Z,10.81
2022-11-04T18:46:37.906Z,10.81
2022-11-04T18:50:34.533Z,10.81
2022-11-04T18:53:57.146Z,10.84
2022-11-04T18:57:35.324Z,10.86
2022-11-04T19:01:33.273Z,10.85
2022-11-04T19:04:53.800Z,10.83
2022-11-04T19:08:52.218Z,10.80
2022-11-04T19:12:31.822Z,10.75
2022-11-04T19:16:12.403Z,10.69
2022-11-04T19:19:33.267Z,10.67
2022-11-04T19:23:11.948Z,10.69
2022-11-04T19:27:07.520Z,10.73
2022-11-04T19:30:27.880Z,10.72
2022-11-04T19:34:25.262Z,10.71
2022-11-04T19:38:06.360Z,10.66
2022-11-04T19:42:04.914Z,10.67
2022-11-04T19:45:25.698Z,10.72
2022-11-04T19:49:04.316Z,10.72
2022-11-04T19:52:41.124Z,10.72
2022-11-04T19:56:37.595Z,10.74
2022-11-04T20:00:16.959Z,10.68
2022-11-04T20:03:37.484Z,10.59
2022-11-04T20:07:33.972Z,10.54
2022-11-04T20:10:54.539Z,10.52
2022-11-04T20:14:55.228Z,10.49
2022-11-04T20:18:35.027Z,10.49
2022-11-04T20:21:55.878Z,10.50
2022-11-04T20:25:33.628Z,10.48
2022-11-04T20:29:29.991Z,10.45
2022-11-04T20:33:09.641Z,10.44
2022-11-04T20:36:31.191Z,10.45
2022-11-04T20:40:11.060Z,10.45
2022-11-04T20:43:47.550Z,10.46
2022-11-04T20:47:24.470Z,10.46
2022-11-04T20:51:09.389Z,10.48
2022-11-04T20:54:38.895Z,10.49
2022-11-04T20:58:40.702Z,10.50
2022-11-04T21:02:01.648Z,10.47
2022-11-04T21:05:57.978Z,10.46
2022-11-04T21:09:21.059Z,10.47
2022-11-04T21:12:56.225Z,10.48
2022-11-04T21:16:35.708Z,10.49
2022-11-04T21:20:11.679Z,10.49
2022-11-04T21:23:49.421Z,10.50
2022-11-04T21:27:26.823Z,10.49
2022-11-04T21:31:24.726Z,10.47
2022-11-04T21:35:04.958Z,10.48
2022-11-04T21:38:25.826Z,10.47
2022-11-04T21:42:22.021Z,10.49
2022-11-04T21:45:42.739Z,10.49
2022-11-04T21:49:20.289Z,10.49
2022-11-04T21:52:58.541Z,10.49
2022-11-04T21:56:35.805Z,10.49
2022-11-04T22:00:16.932Z,10.52
2022-11-04T22:04:11.772Z,10.55
2022-11-04T22:07:51.605Z,10.57
2022-11-04T22:11:32.962Z,10.63
2022-11-04T22:14:54.968Z,10.65
2022-11-04T22:18:33.069Z,10.62
2022-11-04T22:22:09.766Z,10.60
2022-11-04T22:25:50.119Z,10.57
2022-11-04T22:29:24.730Z,10.55
2022-11-04T22:33:25.132Z,10.57
2022-11-04T22:36:48.369Z,10.58
2022-11-04T22:40:26.056Z,10.56
2022-11-04T22:44:22.536Z,10.53
2022-11-04T22:47:43.022Z,10.52
2022-11-04T22:51:21.060Z,10.51
2022-11-04T22:54:58.247Z,10.50
2022-11-04T22:58:36.491Z,10.50
2022-11-04T23:02:13.962Z,10.52
2022-11-04T23:06:00.548Z,10.55
2022-11-04T23:10:06.539Z,10.57
2022-11-04T23:14:15.643Z,10.58
2022-11-04T23:18:17.116Z,10.63
2022-11-04T23:21:56.781Z,10.68
2022-11-04T23:25:36.651Z,10.71
2022-11-04T23:29:16.654Z,10.71
2022-11-04T23:33:02.769Z,10.70
2022-11-04T23:37:01.444Z,10.69
2022-11-04T23:40:22.253Z,10.66
2022-11-04T23:44:48.431Z,10.61
2022-11-04T23:48:32.084Z,10.57
2022-11-04T23:52:12.405Z,10.52
2022-11-04T23:56:12.351Z,10.49
2022-11-04T23:59:52.809Z,10.48
